Aérodrome :
LOGIN :

S'inscrire | Disclaimer

   EN    FR    IT 

 










Légende :    VFR   VFR Marginal   IFR   IFR Intensif   IFR Très Intensif
Visi : 
Plafond : 
>= 8 km
>= 3000ft
5 à 8 km
1000 à 3000 ft
1500m à 5 km
500 à 1000 ft
800 à 1500m
200 à 500 ft
< 800m
< 200 ft
Symboles :   Orages  Brouillard  Fortes neiges  Fortes précipitations  Vent > 20 kt
SIGMETs :   Divers  Orages  Givrage  Turbulence  Onde Orograph.  Cendres Volcan.







- Altitude de l'aérodrome : 12 ft
- Code IATA : BCN


LEBL - Barcelone

DERNIER METAR :
  • 250630Z 32007KT 9999 FEW015 12/08 Q1012 NOSIG

METARs EXPIRÉS :
  • 250600Z 32008KT 9999 FEW020 12/08 Q1012 NOSIG
  • 250500Z 32007KT 9999 FEW020 12/09 Q1012 NOSIG
  • 250430Z 33009KT 9999 FEW015 12/09 Q1012 NOSIG
  • 250400Z 32008KT 9999 FEW015 11/09 Q1013 NOSIG
  • 250330Z 32007KT 9999 FEW015 11/09 Q1013 NOSIG

TAF TAF LEBL
Valide du 25 à 06h jusqu'au 26 à 06h UTC


250500Z 2506/2606 34006KT 9999 FEW040 TX20/2512Z TN11/2506Z
PROB30
TEMPO 2506/2508 BKN014
BECMG 2508/2511 22010KT
TEMPO 2514/2517 22012G25KT
PROB30
TEMPO 2518/2606 4000 RA BKN014
Pas de NOTAMs connus pour ce terrain.



MET'MAP, la Météo Aéronautique d'un coup d'oeil ! - Copyright ORBIFLY Décembre 2007 - Disclaimer

ORBIFLY MET'MAP TEAM :

Programmation & Développement : Alexandra Zaïnal
Conception & Développement : Baudouin d'Aumeries
Co-Programmation & Développement : Marc-Olivier Méhu
Soutien technique & logistique : Manuel Goepfert

Contact : metmap@orbifly.com




SOURCES & CREDITS :

   NOAA